Time;durP1;ratioP1;P1;durP2;ratioP2;P2;SDS_P1;SDS_P2;PMS_P1;PMS_P2;Temp;Humidity;BMP_temperature;BMP_pressure;BME280_temperature;BME280_humidity;BME280_pressure;Samples;Min_cycle;Max_cycle;Signal;HPM_P1;HPM_P2
2021/04/25 00:00:46;;;;;;;9.75;4.22;;;6.40;99.90;;;;;;5017244;28;20065;-85
2021/04/25 00:03:13;;;;;;;12.90;5.15;;;6.40;99.90;;;;;;5016391;28;20057;-85
2021/04/25 00:05:39;;;;;;;9.95;5.03;;;6.30;99.90;;;;;;5020739;28;20114;-85
2021/04/25 00:08:06;;;;;;;12.05;4.78;;;6.30;99.90;;;;;;5031354;28;20084;-85
2021/04/25 00:10:32;;;;;;;14.75;5.20;;;6.20;99.90;;;;;;5016111;28;20030;-85
2021/04/25 00:12:59;;;;;;;8.25;4.00;;;6.20;99.90;;;;;;5019070;28;20049;-85
2021/04/25 00:15:27;;;;;;;8.80;4.78;;;6.10;99.90;;;;;;5015377;28;20476;-85
2021/04/25 00:17:53;;;;;;;9.95;4.55;;;6.10;99.90;;;;;;5014305;28;20049;-86
2021/04/25 00:20:21;;;;;;;9.02;3.88;;;6.10;99.90;;;;;;5016119;28;20448;-85
2021/04/25 00:22:48;;;;;;;9.57;4.03;;;6.10;99.90;;;;;;5013168;28;20167;-86
2021/04/25 00:25:16;;;;;;;8.70;3.85;;;6.20;99.90;;;;;;5001032;28;20085;-86
2021/04/25 00:27:43;;;;;;;11.52;4.25;;;6.10;99.90;;;;;;5015278;28;20056;-84
2021/04/25 00:30:13;;;;;;;10.57;4.00;;;6.20;99.90;;;;;;5000141;28;20045;-85
2021/04/25 00:32:39;;;;;;;7.30;2.95;;;6.30;99.90;;;;;;5014681;28;20053;-86
2021/04/25 00:35:06;;;;;;;12.18;4.20;;;6.30;99.90;;;;;;5017353;28;20131;-85
2021/04/25 00:37:33;;;;;;;11.75;4.43;;;6.40;99.90;;;;;;5015701;28;20056;-86
2021/04/25 00:40:05;;;;;;;7.78;2.97;;;6.40;99.90;;;;;;5019192;28;20068;-87
2021/04/25 00:42:31;;;;;;;6.55;3.42;;;6.40;99.90;;;;;;5014995;28;20045;-85
2021/04/25 00:45:00;;;;;;;5.22;2.78;;;6.40;99.90;;;;;;5013050;28;20104;-84
2021/04/25 00:47:27;;;;;;;8.32;3.35;;;6.50;99.90;;;;;;5013424;28;20099;-85
2021/04/25 00:49:55;;;;;;;8.07;2.70;;;6.50;99.90;;;;;;5031998;28;20041;-84
2021/04/25 00:52:23;;;;;;;7.10;2.85;;;6.50;99.90;;;;;;5020622;28;20049;-85
2021/04/25 00:54:50;;;;;;;5.00;2.10;;;6.50;99.90;;;;;;5029864;28;20065;-84
2021/04/25 00:57:17;;;;;;;6.88;3.53;;;6.50;99.90;;;;;;5031251;28;20025;-85
2021/04/25 00:59:44;;;;;;;7.65;2.90;;;6.50;99.90;;;;;;5017749;28;20049;-85
2021/04/25 01:02:11;;;;;;;7.72;3.55;;;6.50;99.90;;;;;;5019406;28;20041;-86
2021/04/25 01:04:37;;;;;;;6.88;2.65;;;6.60;99.90;;;;;;5034065;28;20049;-85
2021/04/25 01:07:04;;;;;;;8.10;2.80;;;6.50;99.90;;;;;;5019285;28;20107;-84
2021/04/25 01:09:31;;;;;;;10.57;2.85;;;6.50;99.90;;;;;;5021648;28;20049;-85
2021/04/25 01:11:58;;;;;;;6.18;2.50;;;6.60;99.90;;;;;;5021862;28;20516;-85
2021/04/25 01:14:24;;;;;;;11.23;2.50;;;6.60;99.90;;;;;;5013699;28;20107;-83
2021/04/25 01:16:51;;;;;;;7.65;3.22;;;6.60;99.90;;;;;;5031196;28;20055;-87
2021/04/25 01:19:17;;;;;;;7.20;2.53;;;6.60;99.90;;;;;;5017709;28;20057;-84
2021/04/25 01:21:44;;;;;;;8.57;3.42;;;6.60;99.90;;;;;;5005211;28;20053;-82
2021/04/25 01:24:10;;;;;;;5.07;2.63;;;6.60;99.90;;;;;;5012524;28;20072;-85
2021/04/25 01:26:37;;;;;;;11.07;3.30;;;6.60;99.90;;;;;;4996388;28;20124;-85
2021/04/25 01:29:03;;;;;;;10.50;2.65;;;6.60;99.90;;;;;;5017258;28;20489;-84
2021/04/25 01:31:30;;;;;;;9.68;2.67;;;6.60;99.90;;;;;;4977662;28;20055;-85
2021/04/25 01:33:58;;;;;;;10.88;3.40;;;6.70;99.90;;;;;;4993958;28;20531;-86
2021/04/25 01:36:24;;;;;;;9.02;2.42;;;6.70;99.90;;;;;;5013832;28;21025;-84
2021/04/25 01:38:51;;;;;;;9.27;3.08;;;6.70;99.90;;;;;;5013044;28;20060;-86
2021/04/25 01:41:17;;;;;;;7.05;3.03;;;6.70;99.90;;;;;;5003488;28;20053;-85
2021/04/25 01:43:47;;;;;;;11.98;2.85;;;6.70;99.90;;;;;;5029399;28;20049;-85
2021/04/25 01:46:14;;;;;;;11.05;3.45;;;6.70;99.90;;;;;;4970613;28;21308;-86
2021/04/25 01:48:42;;;;;;;10.63;2.65;;;6.70;99.90;;;;;;5006589;28;20053;-84
2021/04/25 01:51:10;;;;;;;5.20;3.13;;;6.70;99.90;;;;;;4997944;28;20584;-84
2021/04/25 01:53:37;;;;;;;7.45;2.72;;;6.70;99.90;;;;;;5030857;28;20061;-84
2021/04/25 01:56:12;;;;;;;10.38;2.75;;;6.70;99.90;;;;;;5017630;28;20526;-84
2021/04/25 01:58:38;;;;;;;7.80;2.78;;;6.70;99.90;;;;;;4998086;28;20061;-84
2021/04/25 02:01:05;;;;;;;7.97;2.08;;;6.70;99.90;;;;;;5001600;28;20479;-86
2021/04/25 02:03:32;;;;;;;9.88;2.95;;;6.70;99.90;;;;;;4987556;28;20053;-86
2021/04/25 02:05:59;;;;;;;5.38;2.47;;;6.70;99.90;;;;;;5009709;28;21488;-85
2021/04/25 02:08:26;;;;;;;5.55;2.78;;;6.70;99.90;;;;;;5008483;28;20049;-86
2021/04/25 02:10:53;;;;;;;6.18;2.70;;;6.70;99.90;;;;;;5019240;28;20053;-86
2021/04/25 02:13:20;;;;;;;5.32;2.15;;;6.60;99.90;;;;;;5011223;28;20559;-85
2021/04/25 02:15:46;;;;;;;7.18;2.17;;;6.60;99.90;;;;;;5016600;28;20128;-85
2021/04/25 02:18:16;;;;;;;6.93;1.95;;;6.60;99.90;;;;;;5014827;28;20080;-85
2021/04/25 02:20:42;;;;;;;6.13;2.35;;;6.70;99.90;;;;;;5014049;28;20468;-83
2021/04/25 02:23:09;;;;;;;6.35;1.90;;;6.60;99.90;;;;;;4977838;28;20119;-86
2021/04/25 02:25:36;;;;;;;11.05;2.17;;;6.70;99.90;;;;;;5001450;28;20072;-85
2021/04/25 02:28:02;;;;;;;6.90;2.03;;;6.70;99.90;;;;;;5003367;28;20049;-85
2021/04/25 02:30:31;;;;;;;9.45;2.67;;;6.70;99.90;;;;;;5029108;28;20049;-85
2021/04/25 02:32:58;;;;;;;8.85;2.22;;;6.60;99.90;;;;;;5016950;28;20076;-85
2021/04/25 02:35:26;;;;;;;7.75;1.73;;;6.60;99.90;;;;;;5016074;28;20081;-84
2021/04/25 02:37:54;;;;;;;6.68;1.80;;;6.60;99.90;;;;;;5009587;28;20195;-84
2021/04/25 02:40:23;;;;;;;6.25;2.47;;;6.60;99.90;;;;;;5027131;28;20034;-84
2021/04/25 02:42:50;;;;;;;5.35;2.05;;;6.60;99.90;;;;;;5011343;28;20057;-83
2021/04/25 02:45:18;;;;;;;8.82;1.88;;;6.60;99.90;;;;;;5010083;28;20041;-84
2021/04/25 02:47:47;;;;;;;8.70;1.73;;;6.50;99.90;;;;;;5014896;28;20462;-84
2021/04/25 02:50:16;;;;;;;5.03;2.00;;;6.50;99.90;;;;;;5008569;28;20105;-86
2021/04/25 02:52:43;;;;;;;3.70;1.63;;;6.50;99.90;;;;;;5013892;28;20110;-85
2021/04/25 02:55:11;;;;;;;2.10;1.15;;;6.50;99.90;;;;;;5017265;28;20025;-86
2021/04/25 02:57:38;;;;;;;6.07;1.48;;;6.50;99.90;;;;;;5009165;28;20123;-85
2021/04/25 03:00:12;;;;;;;5.63;1.40;;;6.50;99.90;;;;;;5019831;28;20057;-86
2021/04/25 03:02:38;;;;;;;4.05;1.58;;;6.40;99.90;;;;;;5028783;28;20041;-84
2021/04/25 03:05:07;;;;;;;4.47;1.70;;;6.40;99.90;;;;;;5004888;28;20422;-85
2021/04/25 03:07:34;;;;;;;19.02;3.25;;;6.40;99.90;;;;;;5031027;28;20053;-85
2021/04/25 03:10:01;;;;;;;4.40;1.55;;;6.40;99.90;;;;;;5017504;28;20049;-87
2021/04/25 03:12:32;;;;;;;6.85;1.63;;;6.30;99.90;;;;;;4988984;28;20793;-86
2021/04/25 03:14:58;;;;;;;9.45;2.67;;;6.30;99.90;;;;;;5029575;28;20059;-85
2021/04/25 03:17:25;;;;;;;5.65;1.77;;;6.30;99.90;;;;;;5002388;28;20408;-86
2021/04/25 03:19:51;;;;;;;3.67;1.30;;;6.20;99.90;;;;;;5015032;28;20061;-85
2021/04/25 03:22:18;;;;;;;5.88;1.42;;;6.20;99.90;;;;;;5006050;28;20045;-85
2021/04/25 03:24:44;;;;;;;4.32;1.45;;;6.20;99.90;;;;;;5028951;28;20590;-87
2021/04/25 03:27:10;;;;;;;7.35;2.45;;;6.20;99.90;;;;;;5020450;28;20060;-86
2021/04/25 03:29:37;;;;;;;3.80;1.60;;;6.20;99.90;;;;;;5018485;28;20087;-84
2021/04/25 03:32:03;;;;;;;9.88;2.70;;;6.20;99.90;;;;;;5024560;28;20136;-85
2021/04/25 03:34:30;;;;;;;4.50;1.63;;;6.20;99.90;;;;;;5031493;28;20049;-85
2021/04/25 03:36:56;;;;;;;3.70;1.60;;;6.20;99.90;;;;;;5016082;28;20041;-85
2021/04/25 03:39:22;;;;;;;7.28;2.08;;;6.20;99.90;;;;;;5018183;28;20093;-85
2021/04/25 03:41:49;;;;;;;4.50;1.50;;;6.20;99.90;;;;;;5016729;28;20049;-85
2021/04/25 03:44:15;;;;;;;9.02;3.00;;;6.20;99.90;;;;;;5019366;28;20049;-84
2021/04/25 03:46:42;;;;;;;6.82;2.05;;;6.20;99.90;;;;;;5006205;28;20059;-84
2021/04/25 03:49:09;;;;;;;4.53;1.70;;;6.20;99.90;;;;;;5018719;28;20053;-85
2021/04/25 03:51:36;;;;;;;5.63;1.92;;;6.20;99.90;;;;;;5017009;28;20100;-84
2021/04/25 03:54:02;;;;;;;10.20;1.60;;;6.20;99.90;;;;;;5016479;28;20042;-84
2021/04/25 03:56:29;;;;;;;4.30;1.70;;;6.20;99.90;;;;;;5012963;28;20062;-86
2021/04/25 03:58:56;;;;;;;7.55;2.30;;;6.20;99.90;;;;;;5013330;28;20124;-85
2021/04/25 04:01:22;;;;;;;5.88;2.10;;;6.20;99.90;;;;;;5011047;28;20049;-86
2021/04/25 04:03:51;;;;;;;7.68;2.60;;;6.20;99.90;;;;;;5003615;28;20057;-86
2021/04/25 04:06:18;;;;;;;6.00;1.88;;;6.20;99.90;;;;;;5015391;28;20048;-87
2021/04/25 04:08:44;;;;;;;7.93;1.90;;;6.20;99.90;;;;;;5004641;28;20056;-84
2021/04/25 04:11:11;;;;;;;4.22;2.22;;;6.20;99.90;;;;;;5011754;28;20050;-85
2021/04/25 04:13:37;;;;;;;6.55;1.88;;;6.20;99.90;;;;;;5013591;28;20084;-86
2021/04/25 04:16:04;;;;;;;6.05;1.80;;;6.30;99.90;;;;;;5011820;28;20077;-86
2021/04/25 04:18:33;;;;;;;5.18;1.73;;;6.30;99.90;;;;;;5012509;28;20113;-84
2021/04/25 04:20:59;;;;;;;3.47;2.10;;;6.30;99.90;;;;;;5021017;28;20053;-86
2021/04/25 04:23:26;;;;;;;5.90;1.63;;;6.30;99.90;;;;;;5007122;28;20058;-85
2021/04/25 04:25:52;;;;;;;5.95;1.83;;;6.30;99.90;;;;;;5034309;28;20107;-86
2021/04/25 04:28:22;;;;;;;7.50;1.83;;;6.30;99.90;;;;;;5018637;28;20053;-84
2021/04/25 04:30:48;;;;;;;7.13;2.10;;;6.30;99.90;;;;;;5018559;28;20050;-86
2021/04/25 04:33:15;;;;;;;8.38;2.17;;;6.30;99.90;;;;;;5011250;28;20057;-85
2021/04/25 04:35:41;;;;;;;12.40;2.28;;;6.30;99.90;;;;;;4999762;28;20033;-85
2021/04/25 04:38:08;;;;;;;7.03;2.33;;;6.30;99.90;;;;;;5010803;28;20064;-83
2021/04/25 04:40:34;;;;;;;10.57;1.95;;;6.30;99.90;;;;;;5017032;28;20089;-86
2021/04/25 04:43:02;;;;;;;11.43;2.63;;;6.30;99.90;;;;;;5013017;28;20104;-85
2021/04/25 04:45:28;;;;;;;8.13;1.63;;;6.30;99.90;;;;;;4995351;28;20045;-85
2021/04/25 04:47:55;;;;;;;3.42;1.52;;;6.30;99.90;;;;;;5034280;28;20103;-84
2021/04/25 04:50:22;;;;;;;6.47;2.08;;;6.30;99.90;;;;;;5036501;28;20049;-86
2021/04/25 04:52:48;;;;;;;7.20;2.05;;;6.40;99.90;;;;;;5024557;28;20057;-85
2021/04/25 04:55:16;;;;;;;3.55;1.80;;;6.40;99.90;;;;;;5025092;28;20057;-85
2021/04/25 04:57:43;;;;;;;6.43;1.98;;;6.40;99.90;;;;;;5015046;28;20410;-85
2021/04/25 05:00:12;;;;;;;9.13;2.65;;;6.40;99.90;;;;;;5007641;28;20071;-86
2021/04/25 05:02:39;;;;;;;5.90;2.15;;;6.30;99.90;;;;;;5014557;28;20084;-87
2021/04/25 05:05:07;;;;;;;2.60;1.70;;;6.30;99.90;;;;;;5013045;28;20092;-86
2021/04/25 05:07:36;;;;;;;4.35;2.15;;;6.30;99.90;;;;;;5017273;28;20069;-85
2021/04/25 05:10:03;;;;;;;8.32;2.17;;;6.30;99.90;;;;;;5015901;28;20049;-84
2021/04/25 05:12:30;;;;;;;4.05;1.67;;;6.40;99.90;;;;;;4994156;28;20070;-86
2021/04/25 05:14:56;;;;;;;5.70;1.25;;;6.30;99.90;;;;;;5014248;28;20058;-84
2021/04/25 05:17:23;;;;;;;5.55;1.38;;;6.30;99.90;;;;;;5016209;28;20136;-86
2021/04/25 05:19:50;;;;;;;7.72;2.45;;;6.30;99.90;;;;;;5008353;28;20049;-84
2021/04/25 05:22:16;;;;;;;8.77;1.45;;;6.40;99.90;;;;;;4998323;28;20497;-85
2021/04/25 05:24:43;;;;;;;4.68;1.45;;;6.40;99.90;;;;;;5008039;28;20056;-85
2021/04/25 05:27:13;;;;;;;5.57;1.58;;;6.40;99.90;;;;;;5014291;28;20508;-84
2021/04/25 05:29:40;;;;;;;9.32;1.35;;;6.50;99.90;;;;;;5003452;28;20150;-85
2021/04/25 05:32:06;;;;;;;8.43;1.50;;;6.40;99.90;;;;;;5017979;28;20571;-85
2021/04/25 05:34:33;;;;;;;8.10;1.80;;;6.50;99.90;;;;;;5005239;28;20394;-86
2021/04/25 05:37:01;;;;;;;6.45;1.58;;;6.50;99.90;;;;;;5033173;28;20061;-84
2021/04/25 05:39:28;;;;;;;3.78;1.48;;;6.50;99.90;;;;;;5032019;28;20460;-84
2021/04/25 05:41:54;;;;;;;4.38;1.20;;;6.50;99.90;;;;;;5027912;28;20081;-86
2021/04/25 05:44:21;;;;;;;5.55;1.30;;;6.60;99.90;;;;;;4970375;28;20057;-86
2021/04/25 05:46:47;;;;;;;10.13;2.00;;;6.60;99.90;;;;;;5006876;28;20111;-86
2021/04/25 05:49:14;;;;;;;6.53;1.45;;;6.60;99.90;;;;;;5004912;28;20076;-85
2021/04/25 05:51:40;;;;;;;6.63;1.58;;;6.70;99.90;;;;;;5030318;28;20517;-85
2021/04/25 05:54:07;;;;;;;8.30;1.65;;;6.60;99.90;;;;;;5004905;28;20053;-85
2021/04/25 05:56:34;;;;;;;5.28;1.63;;;6.70;99.90;;;;;;5031310;28;20122;-86
2021/04/25 05:59:01;;;;;;;9.50;1.65;;;6.80;99.90;;;;;;5017315;28;20508;-86
2021/04/25 06:01:27;;;;;;;8.27;1.55;;;6.80;99.90;;;;;;5000049;28;20053;-86
2021/04/25 06:03:54;;;;;;;7.38;1.38;;;6.80;99.90;;;;;;5013296;28;20053;-86
2021/04/25 06:06:21;;;;;;;7.70;1.63;;;6.80;99.90;;;;;;5003505;28;20046;-85
2021/04/25 06:08:47;;;;;;;3.15;1.00;;;6.90;99.90;;;;;;5010897;28;20417;-85
2021/04/25 06:11:14;;;;;;;8.88;1.23;;;6.90;99.90;;;;;;5019263;28;20053;-86
2021/04/25 06:13:41;;;;;;;5.05;1.60;;;6.90;99.90;;;;;;5004880;28;20076;-85
2021/04/25 06:16:07;;;;;;;2.20;0.88;;;7.00;99.90;;;;;;5021230;28;20049;-85
2021/04/25 06:18:33;;;;;;;9.63;1.33;;;7.00;99.90;;;;;;5004111;28;20049;-84
2021/04/25 06:21:03;;;;;;;4.35;1.25;;;7.10;99.90;;;;;;4977408;28;20409;-83
2021/04/25 06:23:30;;;;;;;4.40;0.80;;;7.10;99.90;;;;;;4967132;28;20516;-84
2021/04/25 06:25:57;;;;;;;7.38;1.80;;;7.20;99.90;;;;;;5006338;28;20053;-83
2021/04/25 06:28:28;;;;;;;2.85;1.02;;;7.10;99.90;;;;;;5005514;28;20452;-84
2021/04/25 06:31:00;;;;;;;8.40;2.00;;;7.20;99.90;;;;;;5014699;28;20145;-85
2021/04/25 06:33:26;;;;;;;7.15;1.67;;;7.20;99.90;;;;;;5012927;28;20056;-85
2021/04/25 06:35:53;;;;;;;10.73;1.45;;;7.20;99.90;;;;;;5003874;28;20044;-84
2021/04/25 06:38:20;;;;;;;6.20;1.10;;;7.20;99.90;;;;;;4987499;28;20058;-84
2021/04/25 06:40:52;;;;;;;8.15;2.25;;;7.30;99.90;;;;;;4977113;28;20045;-84
2021/04/25 06:43:21;;;;;;;4.50;1.17;;;7.30;99.90;;;;;;5016957;28;20053;-84
2021/04/25 06:45:48;;;;;;;8.45;1.13;;;7.40;99.90;;;;;;4999807;28;20050;-84
2021/04/25 06:48:18;;;;;;;7.68;1.10;;;7.40;99.90;;;;;;5012853;28;20054;-85
2021/04/25 06:50:44;;;;;;;5.10;1.30;;;7.50;99.90;;;;;;5004273;28;20041;-85
2021/04/25 06:53:11;;;;;;;11.30;1.63;;;7.50;99.90;;;;;;5001187;28;20100;-84
2021/04/25 06:55:38;;;;;;;3.90;1.42;;;7.60;99.90;;;;;;4997607;28;20093;-83
2021/04/25 06:58:05;;;;;;;8.90;1.33;;;7.70;99.90;;;;;;4996027;28;20064;-84
2021/04/25 07:00:36;;;;;;;3.92;1.15;;;7.70;99.90;;;;;;4977707;28;20064;-84
2021/04/25 07:03:05;;;;;;;8.18;1.25;;;7.80;99.10;;;;;;4978874;28;20120;-85
2021/04/25 07:05:32;;;;;;;4.57;1.67;;;7.90;99.40;;;;;;5008019;28;20073;-86
2021/04/25 07:08:02;;;;;;;3.85;1.33;;;7.90;99.30;;;;;;5020403;28;20080;-83
2021/04/25 07:10:31;;;;;;;6.25;1.25;;;8.00;98.40;;;;;;5013837;28;20057;-83
2021/04/25 07:12:57;;;;;;;4.95;1.08;;;8.00;98.30;;;;;;4999363;28;20074;-84
2021/04/25 07:15:24;;;;;;;7.57;1.60;;;8.00;98.20;;;;;;5009676;28;20065;-84
2021/04/25 07:17:51;;;;;;;8.90;1.58;;;8.00;97.80;;;;;;4995890;28;20116;-84
2021/04/25 07:20:22;;;;;;;7.22;1.90;;;8.00;98.40;;;;;;5002010;28;20137;-84
2021/04/25 07:22:48;;;;;;;11.32;1.40;;;8.00;97.70;;;;;;5029374;28;20052;-85
2021/04/25 07:25:14;;;;;;;6.10;1.75;;;8.10;97.90;;;;;;5009488;28;20073;-84
2021/04/25 07:27:41;;;;;;;6.57;2.25;;;8.20;96.90;;;;;;5020240;28;20492;-85
2021/04/25 07:30:09;;;;;;;7.72;0.98;;;8.20;97.30;;;;;;5009285;28;20053;-86
2021/04/25 07:32:36;;;;;;;4.60;1.00;;;8.20;96.10;;;;;;5017163;28;20053;-86
2021/04/25 07:35:04;;;;;;;5.90;1.08;;;8.20;96.40;;;;;;5023295;28;20029;-84
2021/04/25 07:37:31;;;;;;;6.85;2.00;;;8.30;96.20;;;;;;5031208;28;20389;-84
2021/04/25 07:39:58;;;;;;;5.25;1.17;;;8.30;96.40;;;;;;5025143;28;20049;-85
2021/04/25 07:42:24;;;;;;;6.82;1.27;;;8.40;97.10;;;;;;5012546;28;20085;-84
2021/04/25 07:44:50;;;;;;;5.82;1.13;;;8.40;96.90;;;;;;4990209;28;20054;-85
2021/04/25 07:47:17;;;;;;;7.65;1.35;;;8.60;96.50;;;;;;5024710;28;20170;-84
2021/04/25 07:49:43;;;;;;;8.82;2.22;;;8.60;95.90;;;;;;5010611;28;20084;-84
2021/04/25 07:52:09;;;;;;;7.00;1.70;;;8.60;95.80;;;;;;5010213;28;20080;-85
2021/04/25 07:54:35;;;;;;;8.73;1.92;;;8.70;95.90;;;;;;5010075;28;20076;-84
2021/04/25 07:57:02;;;;;;;6.72;1.35;;;8.70;96.10;;;;;;5027365;28;20459;-84
2021/04/25 07:59:29;;;;;;;6.47;1.27;;;8.80;96.90;;;;;;5017052;28;20474;-85
2021/04/25 08:01:55;;;;;;;8.35;1.60;;;8.90;96.40;;;;;;5028988;28;20106;-84
2021/04/25 08:04:22;;;;;;;7.63;1.40;;;9.10;94.60;;;;;;5016910;28;20056;-85
2021/04/25 08:06:48;;;;;;;8.35;1.70;;;9.10;94.00;;;;;;5030576;28;20050;-84
2021/04/25 08:09:18;;;;;;;11.10;1.63;;;9.10;94.00;;;;;;5019594;28;20060;-85
2021/04/25 08:11:45;;;;;;;8.60;1.45;;;9.10;93.20;;;;;;5031317;28;20080;-85
2021/04/25 08:14:11;;;;;;;6.07;0.98;;;9.10;92.80;;;;;;5013198;28;20061;-84
2021/04/25 08:16:37;;;;;;;6.45;1.08;;;9.10;93.30;;;;;;5016526;28;20630;-85
2021/04/25 08:19:04;;;;;;;5.32;1.17;;;9.10;93.70;;;;;;5005442;28;20053;-85
2021/04/25 08:21:32;;;;;;;6.55;1.45;;;9.20;93.30;;;;;;5012993;28;20060;-84
2021/04/25 08:23:59;;;;;;;5.97;1.10;;;9.40;94.00;;;;;;5030637;28;20049;-84
2021/04/25 08:26:26;;;;;;;4.65;1.75;;;9.50;92.30;;;;;;5011487;28;20045;-86
2021/04/25 08:28:52;;;;;;;6.68;0.82;;;9.60;91.80;;;;;;5028247;28;20061;-83
2021/04/25 08:31:20;;;;;;;5.30;0.98;;;9.80;91.70;;;;;;5025877;28;20049;-84
2021/04/25 08:33:47;;;;;;;6.28;1.38;;;9.90;88.50;;;;;;5005789;28;20056;-85
2021/04/25 08:36:15;;;;;;;6.05;1.45;;;9.90;88.10;;;;;;5027564;28;20973;-84
2021/04/25 08:38:42;;;;;;;8.13;1.58;;;9.90;87.50;;;;;;5006183;28;20059;-86
2021/04/25 08:41:16;;;;;;;4.40;1.27;;;10.00;86.70;;;;;;5015644;28;20068;-83
2021/04/25 08:43:44;;;;;;;;;;;10.00;86.50;;;;;;5006499;28;20053;-85
2021/04/25 08:46:13;;;;;;;11.48;1.92;;;10.10;87.40;;;;;;5010571;28;19979;-85
2021/04/25 08:48:40;;;;;;;6.68;1.25;;;10.20;87.80;;;;;;5014261;28;20053;-85
2021/04/25 08:51:10;;;;;;;5.38;0.80;;;10.40;86.20;;;;;;5016084;28;20095;-86
2021/04/25 08:53:38;;;;;;;7.15;1.50;;;10.60;82.50;;;;;;5000008;28;20084;-85
2021/04/25 08:56:05;;;;;;;8.18;1.20;;;10.60;80.90;;;;;;5012406;28;20049;-85
2021/04/25 08:58:33;;;;;;;4.20;1.13;;;10.60;78.40;;;;;;5016552;28;20060;-85
2021/04/25 09:01:00;;;;;;;3.83;1.60;;;10.50;80.80;;;;;;5005567;28;20455;-86
2021/04/25 09:03:26;;;;;;;16.02;3.28;;;10.60;81.00;;;;;;5009402;28;20068;-86
2021/04/25 09:05:54;;;;;;;2.58;1.45;;;10.70;80.50;;;;;;5016050;28;20040;-86
2021/04/25 09:08:21;;;;;;;3.45;1.08;;;10.90;79.30;;;;;;5013619;28;20060;-86
2021/04/25 09:10:52;;;;;;;2.75;0.90;;;11.00;78.90;;;;;;5015453;28;20041;-86
2021/04/25 09:13:26;;;;;;;4.78;1.25;;;11.00;79.40;;;;;;4995367;28;20053;-85
2021/04/25 09:15:54;;;;;;;4.63;0.95;;;11.10;77.30;;;;;;5011360;28;20488;-85
2021/04/25 09:18:34;;;;;;;4.35;1.08;;;11.20;77.40;;;;;;4997640;28;20113;-85
2021/04/25 09:21:06;;;;;;;3.50;1.15;;;11.20;75.40;;;;;;4984564;28;20480;-85
2021/04/25 09:23:36;;;;;;;3.85;1.70;;;11.30;76.40;;;;;;5006277;28;20059;-85
2021/04/25 09:26:09;;;;;;;8.07;1.58;;;11.30;74.20;;;;;;5019371;28;20053;-84
2021/04/25 09:28:38;;;;;;;6.95;1.02;;;11.10;74.30;;;;;;5010188;28;20033;-83
2021/04/25 09:31:05;;;;;;;6.47;1.23;;;11.00;75.60;;;;;;5011158;28;20060;-83
2021/04/25 09:33:53;;;;;;;2.83;0.82;;;11.00;78.20;;;;;;4996428;28;20101;-84
2021/04/25 09:36:26;;;;;;;2.90;0.95;;;11.00;77.00;;;;;;4979811;28;20092;-84
2021/04/25 09:38:53;;;;;;;4.60;1.10;;;11.10;73.90;;;;;;5014668;28;20055;-83
2021/04/25 09:41:30;;;;;;;5.45;1.40;;;11.00;74.00;;;;;;5016020;28;20056;-85
2021/04/25 09:43:57;;;;;;;3.90;1.20;;;10.90;75.30;;;;;;4983016;28;20053;-84
2021/04/25 09:46:26;;;;;;;9.57;1.30;;;10.90;79.00;;;;;;5025386;28;20053;-84
2021/04/25 09:49:00;;;;;;;4.78;1.40;;;11.20;77.20;;;;;;5017181;28;20057;-85
2021/04/25 09:51:27;;;;;;;5.00;1.98;;;11.30;76.40;;;;;;5016952;28;20149;-85
2021/04/25 09:53:53;;;;;;;2.65;1.08;;;11.50;76.70;;;;;;5015268;28;20127;-86
2021/04/25 09:56:22;;;;;;;6.70;1.38;;;11.70;76.30;;;;;;5016543;28;20045;-86
2021/04/25 09:58:57;;;;;;;1.73;0.80;;;11.80;72.40;;;;;;5025611;28;20045;-85
2021/04/25 10:01:39;;;;;;;5.18;1.67;;;11.70;71.50;;;;;;5027208;28;20041;-86
2021/04/25 10:04:35;;;;;;;4.97;1.27;;;11.50;73.60;;;;;;5040781;28;20041;-85
2021/04/25 10:07:05;;;;;;;5.25;1.23;;;11.50;73.80;;;;;;5022862;28;20045;-86
2021/04/25 10:09:32;;;;;;;4.18;1.00;;;11.50;73.10;;;;;;5022003;28;20055;-85
2021/04/25 10:12:00;;;;;;;3.65;0.88;;;11.50;72.50;;;;;;5022910;28;20041;-85
2021/04/25 10:14:28;;;;;;;3.22;1.05;;;11.40;75.40;;;;;;5036882;28;20041;-87
2021/04/25 10:16:55;;;;;;;2.85;0.90;;;11.50;74.30;;;;;;5027252;28;20088;-84
2021/04/25 10:19:21;;;;;;;4.38;1.15;;;11.60;73.30;;;;;;5025341;28;20477;-85
2021/04/25 10:21:48;;;;;;;6.35;1.23;;;11.70;71.50;;;;;;4999300;28;20077;-85
2021/04/25 10:24:19;;;;;;;9.13;1.50;;;11.60;73.10;;;;;;4997938;28;20489;-85
2021/04/25 10:27:10;;;;;;;9.55;2.42;;;11.60;73.70;;;;;;5008657;28;20049;-85
2021/04/25 10:29:54;;;;;;;8.50;1.65;;;11.70;72.70;;;;;;5007773;28;20053;-85
2021/04/25 10:32:22;;;;;;;6.72;1.42;;;11.70;73.40;;;;;;5017095;28;20135;-84
2021/04/25 10:35:11;;;;;;;4.93;1.25;;;11.80;72.50;;;;;;5013105;28;20053;-84
2021/04/25 10:37:39;;;;;;;5.60;1.25;;;11.90;71.30;;;;;;5001333;28;20073;-84
2021/04/25 10:40:23;;;;;;;6.15;1.58;;;12.00;70.40;;;;;;5014453;28;20080;-87
2021/04/25 10:43:18;;;;;;;7.47;1.60;;;12.00;71.40;;;;;;5011540;28;20053;-84
2021/04/25 10:46:01;;;;;;;7.00;1.65;;;12.00;71.10;;;;;;5008701;28;20039;-84
2021/04/25 10:48:33;;;;;;;11.30;2.33;;;12.00;71.80;;;;;;5025932;28;20095;-84
2021/04/25 10:51:20;;;;;;;5.15;1.20;;;12.00;70.50;;;;;;5017696;28;20528;-85
2021/04/25 10:53:47;;;;;;;2.60;1.08;;;12.00;71.70;;;;;;5007318;28;20434;-85
2021/04/25 10:56:17;;;;;;;4.60;1.40;;;12.10;70.60;;;;;;5004956;28;20056;-84
2021/04/25 10:58:45;;;;;;;6.78;1.30;;;12.30;70.90;;;;;;5007820;28;20107;-85
2021/04/25 11:01:39;;;;;;;8.80;1.48;;;12.40;69.70;;;;;;5005847;28;20144;-85
2021/04/25 11:04:07;;;;;;;5.20;1.27;;;12.60;68.80;;;;;;5009160;28;21208;-84
2021/04/25 11:06:33;;;;;;;8.25;1.02;;;12.60;69.80;;;;;;5009668;28;20057;-85
2021/04/25 11:09:01;;;;;;;9.70;1.40;;;12.60;68.90;;;;;;5007104;28;20095;-85
2021/04/25 11:11:38;;;;;;;6.03;1.10;;;12.60;68.80;;;;;;5015437;28;20073;-84
2021/04/25 11:14:06;;;;;;;8.60;1.17;;;12.70;68.60;;;;;;5019540;28;20049;-85
2021/04/25 11:16:34;;;;;;;10.73;1.75;;;12.70;68.90;;;;;;5006797;28;20156;-83
2021/04/25 11:19:09;;;;;;;5.97;1.25;;;12.80;69.40;;;;;;5006815;28;20076;-85
2021/04/25 11:21:49;;;;;;;7.72;1.58;;;12.80;68.30;;;;;;5025628;28;20049;-84
2021/04/25 11:24:16;;;;;;;8.85;1.88;;;12.80;65.80;;;;;;5008548;28;20049;-84
2021/04/25 11:26:47;;;;;;;4.60;1.45;;;12.60;67.80;;;;;;5018171;28;20075;-85
2021/04/25 11:29:23;;;;;;;5.70;1.45;;;12.60;66.90;;;;;;5027689;28;20054;-85
2021/04/25 11:31:53;;;;;;;14.10;1.50;;;12.60;68.40;;;;;;5013051;28;20113;-85
2021/04/25 11:34:25;;;;;;;4.43;1.25;;;12.50;67.20;;;;;;5010561;28;20059;-85
2021/04/25 11:36:52;;;;;;;5.63;1.40;;;12.50;67.60;;;;;;5012240;28;20112;-85
2021/04/25 11:39:27;;;;;;;3.78;1.02;;;12.60;68.50;;;;;;5011729;28;20116;-85
2021/04/25 11:41:54;;;;;;;8.40;1.25;;;12.70;66.80;;;;;;5025946;28;20434;-84
2021/04/25 11:44:36;;;;;;;7.63;1.42;;;12.80;67.10;;;;;;5013934;28;21924;-85
2021/04/25 11:47:09;;;;;;;6.70;1.25;;;13.00;67.60;;;;;;5024558;28;20049;-85
2021/04/25 11:49:39;;;;;;;5.25;1.40;;;13.30;67.70;;;;;;5011489;28;20385;-85
2021/04/25 11:52:18;;;;;;;6.30;1.30;;;13.60;67.00;;;;;;5007357;28;20045;-84
2021/04/25 11:54:46;;;;;;;5.32;1.08;;;13.80;66.40;;;;;;5005629;28;20053;-84
2021/04/25 11:57:18;;;;;;;7.25;1.20;;;13.90;63.10;;;;;;5025542;28;20119;-84
2021/04/25 12:00:08;;;;;;;4.90;1.40;;;13.90;63.30;;;;;;5014583;28;20614;-85
2021/04/25 12:02:44;;;;;;;5.03;1.40;;;13.80;63.00;;;;;;5027912;28;24882;-84
2021/04/25 12:05:25;;;;;;;4.20;1.00;;;13.60;62.10;;;;;;5010378;28;20049;-84
2021/04/25 12:08:00;;;;;;;5.10;1.10;;;13.40;62.60;;;;;;5005279;28;20053;-84
2021/04/25 12:10:32;;;;;;;3.35;1.10;;;13.30;63.70;;;;;;5024363;28;20408;-85
2021/04/25 12:13:15;;;;;;;6.68;1.25;;;13.30;63.70;;;;;;5026924;28;20053;-84
2021/04/25 12:15:46;;;;;;;;;;;13.60;63.40;;;;;;5009588;28;21408;-85
2021/04/25 12:18:14;;;;;;;11.02;2.25;;;13.80;61.10;;;;;;5028139;28;19925;-85
2021/04/25 12:20:43;;;;;;;5.07;1.10;;;13.90;62.60;;;;;;5013064;28;20057;-85
2021/04/25 12:23:20;;;;;;;10.88;1.40;;;14.40;63.60;;;;;;5018648;28;20057;-85
2021/04/25 12:25:48;;;;;;;4.40;1.50;;;15.10;59.50;;;;;;5026065;28;20103;-86
2021/04/25 12:28:16;;;;;;;5.18;1.33;;;15.30;57.10;;;;;;5015035;28;20083;-84
2021/04/25 12:30:45;;;;;;;5.75;1.48;;;15.40;58.30;;;;;;5031154;28;20084;-84
2021/04/25 12:33:20;;;;;;;6.93;1.38;;;16.00;56.80;;;;;;5012983;28;20068;-85
2021/04/25 12:35:51;;;;;;;9.70;2.10;;;16.70;56.10;;;;;;5011420;28;20453;-85
2021/04/25 12:38:23;;;;;;;6.28;1.33;;;17.40;52.30;;;;;;5012526;28;20072;-85
2021/04/25 12:40:53;;;;;;;8.02;1.70;;;17.40;54.10;;;;;;5012509;28;20056;-85
2021/04/25 12:43:20;;;;;;;7.82;1.25;;;17.60;53.30;;;;;;5007546;28;20146;-85
2021/04/25 12:45:48;;;;;;;4.03;1.40;;;17.90;51.90;;;;;;5031050;28;20076;-85
2021/04/25 12:48:30;;;;;;;6.03;0.95;;;18.40;48.80;;;;;;5028909;28;20055;-85
2021/04/25 12:51:19;;;;;;;5.32;1.50;;;18.20;49.80;;;;;;5015679;28;20484;-85
2021/04/25 12:53:50;;;;;;;4.82;1.55;;;17.90;51.10;;;;;;5003692;28;20109;-85
2021/04/25 12:56:26;;;;;;;5.18;1.50;;;18.70;51.00;;;;;;5011704;28;20085;-84
2021/04/25 12:59:21;;;;;;;3.17;1.10;;;19.30;48.00;;;;;;5013991;28;20045;-84
2021/04/25 13:02:08;;;;;;;4.18;1.30;;;19.20;46.90;;;;;;5015246;28;20436;-85